sensor_id;sensor_type;location;lat;lon;timestamp;pressure;altitude;pressure_sealevel;temperature;humidity
59194;BME280;44967;48.598;15.650;2023-02-20T00:01:01;99042.13;;;6.38;76.32
59194;BME280;44967;48.598;15.650;2023-02-20T00:03:27;99041.25;;;6.32;76.42
59194;BME280;44967;48.598;15.650;2023-02-20T00:05:53;99035.13;;;6.34;77.07
59194;BME280;44967;48.598;15.650;2023-02-20T00:08:19;99034.22;;;6.49;76.82
59194;BME280;44967;48.598;15.650;2023-02-20T00:10:44;99030.75;;;6.32;77.91
59194;BME280;44967;48.598;15.650;2023-02-20T00:13:10;99031.63;;;6.26;78.13
59194;BME280;44967;48.598;15.650;2023-02-20T00:15:36;99022.91;;;6.15;78.94
59194;BME280;44967;48.598;15.650;2023-02-20T00:18:02;99022.91;;;6.18;78.96
59194;BME280;44967;48.598;15.650;2023-02-20T00:20:28;99024.66;;;6.16;79.08
59194;BME280;44967;48.598;15.650;2023-02-20T00:22:54;99022.91;;;6.06;79.08
59194;BME280;44967;48.598;15.650;2023-02-20T00:25:21;99019.41;;;6.10;79.04
59194;BME280;44967;48.598;15.650;2023-02-20T00:27:47;99020.25;;;6.16;79.11
59194;BME280;44967;48.598;15.650;2023-02-20T00:30:19;99022.91;;;6.06;79.73
59194;BME280;44967;48.598;15.650;2023-02-20T00:32:46;99029.03;;;6.02;79.67
59194;BME280;44967;48.598;15.650;2023-02-20T00:35:12;99015.03;;;6.01;80.05
59194;BME280;44967;48.598;15.650;2023-02-20T00:37:38;99017.69;;;6.03;80.31
59194;BME280;44967;48.598;15.650;2023-02-20T00:40:05;99017.66;;;6.06;80.07
59194;BME280;44967;48.598;15.650;2023-02-20T00:42:31;99016.78;;;6.05;80.05
59194;BME280;44967;48.598;15.650;2023-02-20T00:44:56;99002.81;;;6.08;80.61
59194;BME280;44967;48.598;15.650;2023-02-20T00:47:23;99006.31;;;6.11;80.09
59194;BME280;44967;48.598;15.650;2023-02-20T00:49:48;99008.91;;;6.16;79.92
59194;BME280;44967;48.598;15.650;2023-02-20T00:52:14;99008.91;;;6.18;80.38
59194;BME280;44967;48.598;15.650;2023-02-20T00:54:39;98994.03;;;6.13;81.01
59194;BME280;44967;48.598;15.650;2023-02-20T00:57:05;98994.91;;;6.20;80.68
59194;BME280;44967;48.598;15.650;2023-02-20T00:59:31;98988.78;;;6.24;80.37
59194;BME280;44967;48.598;15.650;2023-02-20T01:01:56;99000.13;;;6.29;81.08
59194;BME280;44967;48.598;15.650;2023-02-20T01:04:22;99004.53;;;6.32;81.38
59194;BME280;44967;48.598;15.650;2023-02-20T01:06:48;99002.75;;;6.31;80.38
59194;BME280;44967;48.598;15.650;2023-02-20T01:09:14;99008.00;;;6.32;81.08
59194;BME280;44967;48.598;15.650;2023-02-20T01:11:41;99002.75;;;6.35;81.08
59194;BME280;44967;48.598;15.650;2023-02-20T01:14:08;99003.63;;;6.33;80.41
59194;BME280;44967;48.598;15.650;2023-02-20T01:16:33;98990.50;;;6.30;80.46
59194;BME280;44967;48.598;15.650;2023-02-20T01:18:59;98992.28;;;6.26;81.94
59194;BME280;44967;48.598;15.650;2023-02-20T01:21:25;98980.00;;;6.28;81.67
59194;BME280;44967;48.598;15.650;2023-02-20T01:23:50;98977.38;;;6.30;81.15
59194;BME280;44967;48.598;15.650;2023-02-20T01:26:16;98972.16;;;6.25;81.47
59194;BME280;44967;48.598;15.650;2023-02-20T01:28:45;98966.88;;;6.33;81.41
59194;BME280;44967;48.598;15.650;2023-02-20T01:31:13;98975.59;;;6.36;80.90
59194;BME280;44967;48.598;15.650;2023-02-20T01:33:42;98966.00;;;6.38;81.42
59194;BME280;44967;48.598;15.650;2023-02-20T01:36:09;98963.34;;;6.41;81.19
59194;BME280;44967;48.598;15.650;2023-02-20T01:38:35;98967.75;;;6.39;80.91
59194;BME280;44967;48.598;15.650;2023-02-20T01:41:01;98959.00;;;6.39;81.80
59194;BME280;44967;48.598;15.650;2023-02-20T01:43:27;98963.38;;;6.38;81.01
59194;BME280;44967;48.598;15.650;2023-02-20T01:45:53;98970.38;;;6.30;81.04
59194;BME280;44967;48.598;15.650;2023-02-20T01:48:22;98971.28;;;6.28;81.70
59194;BME280;44967;48.598;15.650;2023-02-20T01:50:52;98971.28;;;6.22;81.81
59194;BME280;44967;48.598;15.650;2023-02-20T01:53:22;98973.91;;;6.28;82.19
59194;BME280;44967;48.598;15.650;2023-02-20T01:55:56;98969.50;;;6.30;81.35
59194;BME280;44967;48.598;15.650;2023-02-20T01:58:28;98965.16;;;6.24;81.95
59194;BME280;44967;48.598;15.650;2023-02-20T02:00:56;98960.78;;;6.23;81.82
59194;BME280;44967;48.598;15.650;2023-02-20T02:03:26;98964.28;;;6.22;82.45
59194;BME280;44967;48.598;15.650;2023-02-20T02:05:58;98964.28;;;6.22;82.32
59194;BME280;44967;48.598;15.650;2023-02-20T02:08:25;98970.41;;;6.21;81.75
59194;BME280;44967;48.598;15.650;2023-02-20T02:11:07;98968.66;;;6.19;81.93
59194;BME280;44967;48.598;15.650;2023-02-20T02:13:35;98972.19;;;6.16;82.02
59194;BME280;44967;48.598;15.650;2023-02-20T02:21:21;98957.31;;;6.12;82.93
59194;BME280;44967;48.598;15.650;2023-02-20T02:46:19;98939.84;;;6.08;83.13
59194;BME280;44967;48.598;15.650;2023-02-20T02:51:38;98943.34;;;6.01;84.25
59194;BME280;44967;48.598;15.650;2023-02-20T02:56:40;98932.84;;;5.98;84.72
59194;BME280;44967;48.598;15.650;2023-02-20T02:59:08;98938.97;;;5.97;84.08
59194;BME280;44967;48.598;15.650;2023-02-20T03:01:39;98943.34;;;5.99;84.07
59194;BME280;44967;48.598;15.650;2023-02-20T03:04:08;98945.13;;;5.91;83.89
59194;BME280;44967;48.598;15.650;2023-02-20T03:06:38;98947.72;;;5.90;83.93
59194;BME280;44967;48.598;15.650;2023-02-20T03:09:11;98936.38;;;5.92;84.40
59194;BME280;44967;48.598;15.650;2023-02-20T03:11:40;98953.84;;;5.90;84.22
59194;BME280;44967;48.598;15.650;2023-02-20T03:14:27;98947.72;;;5.93;84.93
59194;BME280;44967;48.598;15.650;2023-02-20T03:17:45;98946.00;;;5.92;84.52
59194;BME280;44967;48.598;15.650;2023-02-20T03:20:16;98940.75;;;5.95;84.02
59194;BME280;44967;48.598;15.650;2023-02-20T03:22:55;98939.00;;;5.88;84.20
59194;BME280;44967;48.598;15.650;2023-02-20T03:25:25;98951.22;;;5.93;84.74
59194;BME280;44967;48.598;15.650;2023-02-20T03:33:37;98948.56;;;6.05;84.45
59194;BME280;44967;48.598;15.650;2023-02-20T03:36:36;98949.47;;;6.03;84.53
59194;BME280;44967;48.598;15.650;2023-02-20T03:39:27;98944.22;;;6.00;84.13
59194;BME280;44967;48.598;15.650;2023-02-20T03:42:15;98940.75;;;5.95;84.57
59194;BME280;44967;48.598;15.650;2023-02-20T03:45:00;98932.00;;;5.90;84.69
59194;BME280;44967;48.598;15.650;2023-02-20T03:47:28;98920.66;;;5.88;84.79
59194;BME280;44967;48.598;15.650;2023-02-20T03:49:56;98917.13;;;5.80;85.47
59194;BME280;44967;48.598;15.650;2023-02-20T03:52:24;98917.97;;;5.82;85.68
59194;BME280;44967;48.598;15.650;2023-02-20T03:54:50;98928.47;;;5.79;85.73
59194;BME280;44967;48.598;15.650;2023-02-20T03:57:33;98925.84;;;5.82;85.80
59194;BME280;44967;48.598;15.650;2023-02-20T04:00:04;98923.25;;;5.79;85.29
59194;BME280;44967;48.598;15.650;2023-02-20T04:02:35;98916.25;;;5.81;85.87
59194;BME280;44967;48.598;15.650;2023-02-20T04:05:07;98908.38;;;5.82;86.22
59194;BME280;44967;48.598;15.650;2023-02-20T04:07:46;98908.38;;;5.82;85.69
59194;BME280;44967;48.598;15.650;2023-02-20T04:10:18;98912.75;;;5.82;85.17
59194;BME280;44967;48.598;15.650;2023-02-20T04:12:47;98915.38;;;5.83;85.55
59194;BME280;44967;48.598;15.650;2023-02-20T04:15:14;98903.16;;;5.87;85.31
59194;BME280;44967;48.598;15.650;2023-02-20T04:17:48;98911.88;;;5.75;84.30
59194;BME280;44967;48.598;15.650;2023-02-20T04:20:15;98903.13;;;5.79;85.40
59194;BME280;44967;48.598;15.650;2023-02-20T04:22:44;98901.38;;;5.69;84.97
59194;BME280;44967;48.598;15.650;2023-02-20T04:27:45;98902.28;;;5.73;86.07
59194;BME280;44967;48.598;15.650;2023-02-20T04:30:12;98898.78;;;5.66;85.40
59194;BME280;44967;48.598;15.650;2023-02-20T04:32:37;98898.75;;;5.74;85.57
59194;BME280;44967;48.598;15.650;2023-02-20T04:35:03;98901.38;;;5.78;85.70
59194;BME280;44967;48.598;15.650;2023-02-20T04:37:29;98902.25;;;5.79;85.89
59194;BME280;44967;48.598;15.650;2023-02-20T04:39:55;98907.47;;;5.85;85.85
59194;BME280;44967;48.598;15.650;2023-02-20T04:42:20;98914.50;;;5.89;85.44
59194;BME280;44967;48.598;15.650;2023-02-20T04:44:46;98911.03;;;5.91;86.22
59194;BME280;44967;48.598;15.650;2023-02-20T04:47:14;98913.59;;;5.85;85.40
59194;BME280;44967;48.598;15.650;2023-02-20T04:49:41;98913.63;;;5.90;86.10
59194;BME280;44967;48.598;15.650;2023-02-20T04:52:07;98910.13;;;5.89;85.58
59194;BME280;44967;48.598;15.650;2023-02-20T04:54:32;98917.09;;;5.86;85.44
59194;BME280;44967;48.598;15.650;2023-02-20T04:56:59;98919.75;;;5.80;85.73
59194;BME280;44967;48.598;15.650;2023-02-20T04:59:24;98917.97;;;5.85;85.81
59194;BME280;44967;48.598;15.650;2023-02-20T05:01:50;98917.13;;;5.90;86.02
59194;BME280;44967;48.598;15.650;2023-02-20T05:04:20;98908.38;;;5.90;86.20
59194;BME280;44967;48.598;15.650;2023-02-20T05:06:51;98909.25;;;5.95;86.19
59194;BME280;44967;48.598;15.650;2023-02-20T05:09:18;98905.75;;;5.93;85.38
59194;BME280;44967;48.598;15.650;2023-02-20T05:11:43;98899.66;;;5.88;85.52
59194;BME280;44967;48.598;15.650;2023-02-20T05:14:09;98899.63;;;5.85;85.55
59194;BME280;44967;48.598;15.650;2023-02-20T05:16:39;98901.38;;;5.83;86.17
59194;BME280;44967;48.598;15.650;2023-02-20T05:19:05;98900.53;;;5.81;85.52
59194;BME280;44967;48.598;15.650;2023-02-20T05:21:31;98893.53;;;5.80;85.78
59194;BME280;44967;48.598;15.650;2023-02-20T05:24:16;98894.41;;;5.76;85.77
59194;BME280;44967;48.598;15.650;2023-02-20T05:26:42;98889.19;;;5.68;85.58
59194;BME280;44967;48.598;15.650;2023-02-20T05:29:08;98885.69;;;5.55;85.58
59194;BME280;44967;48.598;15.650;2023-02-20T05:31:40;98893.56;;;5.55;86.23
59194;BME280;44967;48.598;15.650;2023-02-20T05:34:06;98893.53;;;5.49;85.96
59194;BME280;44967;48.598;15.650;2023-02-20T05:36:32;98897.06;;;5.51;85.75
59194;BME280;44967;48.598;15.650;2023-02-20T05:38:58;98893.56;;;5.45;85.21
59194;BME280;44967;48.598;15.650;2023-02-20T05:41:23;98898.78;;;5.67;85.51
59194;BME280;44967;48.598;15.650;2023-02-20T05:43:49;98897.91;;;5.41;84.91
59194;BME280;44967;48.598;15.650;2023-02-20T05:46:18;98895.31;;;5.38;85.01
59194;BME280;44967;48.598;15.650;2023-02-20T05:48:47;98900.53;;;5.41;85.45
59194;BME280;44967;48.598;15.650;2023-02-20T05:51:39;98905.78;;;5.38;85.78
59194;BME280;44967;48.598;15.650;2023-02-20T05:54:05;98890.94;;;5.54;84.43
59194;BME280;44967;48.598;15.650;2023-02-20T05:56:30;98901.38;;;5.78;82.98
59194;BME280;44967;48.598;15.650;2023-02-20T05:58:58;98904.03;;;5.77;82.02
59194;BME280;44967;48.598;15.650;2023-02-20T06:01:25;98902.25;;;5.69;82.47
59194;BME280;44967;48.598;15.650;2023-02-20T06:03:52;98903.16;;;5.87;81.75
59194;BME280;44967;48.598;15.650;2023-02-20T06:06:19;98903.13;;;6.02;80.29
59194;BME280;44967;48.598;15.650;2023-02-20T06:08:45;98907.47;;;6.15;80.75
59194;BME280;44967;48.598;15.650;2023-02-20T06:11:12;98908.28;;;6.25;79.72
59194;BME280;44967;48.598;15.650;2023-02-20T06:13:43;98914.38;;;6.33;78.78
59194;BME280;44967;48.598;15.650;2023-02-20T06:16:09;98910.03;;;6.32;79.44
59194;BME280;44967;48.598;15.650;2023-02-20T06:18:42;98913.50;;;6.37;79.33
59194;BME280;44967;48.598;15.650;2023-02-20T06:21:10;98910.88;;;6.35;79.72
59194;BME280;44967;48.598;15.650;2023-02-20T06:23:37;98913.47;;;6.43;79.53
59194;BME280;44967;48.598;15.650;2023-02-20T06:26:04;98917.81;;;6.48;79.44
59194;BME280;44967;48.598;15.650;2023-02-20T06:28:30;98919.56;;;6.48;78.07
59194;BME280;44967;48.598;15.650;2023-02-20T06:30:55;98930.88;;;6.60;77.86
59194;BME280;44967;48.598;15.650;2023-02-20T06:33:21;98929.97;;;6.72;78.69
59194;BME280;44967;48.598;15.650;2023-02-20T06:35:47;98924.72;;;6.71;78.10
59194;BME280;44967;48.598;15.650;2023-02-20T06:38:12;98923.00;;;6.67;77.90
59194;BME280;44967;48.598;15.650;2023-02-20T06:40:40;98929.06;;;6.78;77.36
59194;BME280;44967;48.598;15.650;2023-02-20T06:43:05;98925.47;;;6.94;77.24
59194;BME280;44967;48.598;15.650;2023-02-20T06:45:31;98937.72;;;6.96;75.87
59194;BME280;44967;48.598;15.650;2023-02-20T06:47:56;98935.09;;;6.98;76.08
59194;BME280;44967;48.598;15.650;2023-02-20T06:50:22;98929.84;;;6.98;74.96
59194;BME280;44967;48.598;15.650;2023-02-20T06:52:48;98934.22;;;6.97;75.43
59194;BME280;44967;48.598;15.650;2023-02-20T06:55:14;98930.56;;;7.15;74.75
59194;BME280;44967;48.598;15.650;2023-02-20T06:57:39;98930.63;;;7.09;75.08
59194;BME280;44967;48.598;15.650;2023-02-20T07:00:06;98921.97;;;6.92;75.50
59194;BME280;44967;48.598;15.650;2023-02-20T07:02:31;98933.38;;;6.91;75.39
59194;BME280;44967;48.598;15.650;2023-02-20T07:04:57;98922.81;;;6.97;75.02
59194;BME280;44967;48.598;15.650;2023-02-20T07:07:23;98918.47;;;6.94;75.13
59194;BME280;44967;48.598;15.650;2023-02-20T07:09:49;98917.53;;;7.00;75.66
59194;BME280;44967;48.598;15.650;2023-02-20T07:12:17;98919.22;;;7.11;74.33
59194;BME280;44967;48.598;15.650;2023-02-20T07:14:43;98913.88;;;7.25;73.03
59194;BME280;44967;48.598;15.650;2023-02-20T07:17:09;98916.53;;;7.21;74.11
59194;BME280;44967;48.598;15.650;2023-02-20T07:19:34;98910.34;;;7.29;73.69
59194;BME280;44967;48.598;15.650;2023-02-20T07:22:00;98906.88;;;7.26;73.99
59194;BME280;44967;48.598;15.650;2023-02-20T07:24:26;98901.63;;;7.20;73.71
59194;BME280;44967;48.598;15.650;2023-02-20T07:26:53;98922.56;;;7.36;72.41
59194;BME280;44967;48.598;15.650;2023-02-20T07:29:19;98922.56;;;7.36;73.27
59194;BME280;44967;48.598;15.650;2023-02-20T07:31:44;98917.25;;;7.42;73.81
59194;BME280;44967;48.598;15.650;2023-02-20T07:34:10;98911.03;;;7.51;73.61
59194;BME280;44967;48.598;15.650;2023-02-20T07:36:36;98919.81;;;7.50;72.23
59194;BME280;44967;48.598;15.650;2023-02-20T07:39:02;98912.84;;;7.44;72.70
59194;BME280;44967;48.598;15.650;2023-02-20T07:41:29;98916.28;;;7.51;72.80
59194;BME280;44967;48.598;15.650;2023-02-20T07:43:57;98921.53;;;7.52;73.31
59194;BME280;44967;48.598;15.650;2023-02-20T07:46:23;98906.56;;;7.61;72.71
59194;BME280;44967;48.598;15.650;2023-02-20T07:48:49;98911.75;;;7.70;73.56
59194;BME280;44967;48.598;15.650;2023-02-20T07:51:15;98913.41;;;7.78;72.26
59194;BME280;44967;48.598;15.650;2023-02-20T07:53:50;98910.81;;;7.77;73.04
59194;BME280;44967;48.598;15.650;2023-02-20T07:56:19;98909.78;;;7.93;73.07
59194;BME280;44967;48.598;15.650;2023-02-20T07:58:45;98914.78;;;8.14;71.65
59194;BME280;44967;48.598;15.650;2023-02-20T08:01:10;98913.94;;;8.14;72.48
59194;BME280;44967;48.598;15.650;2023-02-20T08:03:36;98906.75;;;8.26;71.20
59194;BME280;44967;48.598;15.650;2023-02-20T08:06:01;98906.81;;;8.25;70.68
59194;BME280;44967;48.598;15.650;2023-02-20T08:08:28;98898.75;;;8.38;69.62
59194;BME280;44967;48.598;15.650;2023-02-20T08:10:53;98887.28;;;8.44;70.42
59194;BME280;44967;48.598;15.650;2023-02-20T08:13:19;98882.84;;;8.46;70.14
59194;BME280;44967;48.598;15.650;2023-02-20T08:15:44;98882.75;;;8.53;70.55
59194;BME280;44967;48.598;15.650;2023-02-20T08:18:13;98877.44;;;8.60;70.19
59194;BME280;44967;48.598;15.650;2023-02-20T08:20:39;98880.91;;;8.62;69.79
59194;BME280;44967;48.598;15.650;2023-02-20T08:23:05;98886.00;;;8.77;68.89
59194;BME280;44967;48.598;15.650;2023-02-20T08:25:31;98881.19;;;9.03;66.94
59194;BME280;44967;48.598;15.650;2023-02-20T08:27:57;98868.72;;;9.14;66.12
59194;BME280;44967;48.598;15.650;2023-02-20T08:30:25;98883.41;;;9.29;66.78
59194;BME280;44967;48.598;15.650;2023-02-20T08:32:52;98888.41;;;9.47;66.51
59194;BME280;44967;48.598;15.650;2023-02-20T08:35:19;98888.16;;;9.61;63.86
59194;BME280;44967;48.598;15.650;2023-02-20T08:37:45;98888.22;;;9.58;63.17
59194;BME280;44967;48.598;15.650;2023-02-20T08:40:11;98884.63;;;9.62;64.68
59194;BME280;44967;48.598;15.650;2023-02-20T08:42:37;98880.78;;;9.81;66.41
59194;BME280;44967;48.598;15.650;2023-02-20T08:45:05;98881.50;;;9.90;66.31
59194;BME280;44967;48.598;15.650;2023-02-20T08:47:32;98884.78;;;10.03;65.73
59194;BME280;44967;48.598;15.650;2023-02-20T08:49:57;98881.94;;;10.12;65.06
59194;BME280;44967;48.598;15.650;2023-02-20T08:52:26;98878.41;;;10.13;63.30
59194;BME280;44967;48.598;15.650;2023-02-20T08:54:51;98879.38;;;10.09;64.28
59194;BME280;44967;48.598;15.650;2023-02-20T08:57:18;98881.31;;;10.00;63.95
59194;BME280;44967;48.598;15.650;2023-02-20T08:59:44;98878.56;;;10.04;63.21
59194;BME280;44967;48.598;15.650;2023-02-20T09:02:21;98883.84;;;10.06;62.97
59194;BME280;44967;48.598;15.650;2023-02-20T09:04:55;98892.00;;;9.93;63.32
59194;BME280;44967;48.598;15.650;2023-02-20T09:07:21;98882.47;;;9.85;62.20
59194;BME280;44967;48.598;15.650;2023-02-20T09:09:47;98877.31;;;9.79;62.29
59194;BME280;44967;48.598;15.650;2023-02-20T09:12:15;98879.03;;;9.80;62.45
59194;BME280;44967;48.598;15.650;2023-02-20T09:14:41;98873.66;;;9.84;62.16
59194;BME280;44967;48.598;15.650;2023-02-20T09:17:07;98872.75;;;9.87;64.06
59194;BME280;44967;48.598;15.650;2023-02-20T09:19:36;98875.19;;;9.98;62.10
59194;BME280;44967;48.598;15.650;2023-02-20T09:22:02;98871.81;;;9.91;63.00
59194;BME280;44967;48.598;15.650;2023-02-20T09:24:27;98866.63;;;9.85;62.32
59194;BME280;44967;48.598;15.650;2023-02-20T09:27:02;98869.94;;;9.96;61.22
59194;BME280;44967;48.598;15.650;2023-02-20T09:29:29;98867.28;;;9.98;61.43
59194;BME280;44967;48.598;15.650;2023-02-20T09:31:55;98848.81;;;9.96;62.20
59194;BME280;44967;48.598;15.650;2023-02-20T09:34:20;98848.63;;;10.07;61.41
59194;BME280;44967;48.598;15.650;2023-02-20T09:36:49;98838.59;;;10.25;61.11
59194;BME280;44967;48.598;15.650;2023-02-20T09:39:14;98835.88;;;10.28;61.37
59194;BME280;44967;48.598;15.650;2023-02-20T09:44:58;98826.31;;;10.23;61.57
59194;BME280;44967;48.598;15.650;2023-02-20T09:50:38;98810.31;;;10.30;59.97
59194;BME280;44967;48.598;15.650;2023-02-20T09:53:55;98795.97;;;10.42;59.26
59194;BME280;44967;48.598;15.650;2023-02-20T09:56:20;98798.63;;;10.40;57.57
59194;BME280;44967;48.598;15.650;2023-02-20T10:01:45;98788.78;;;10.47;58.96
59194;BME280;44967;48.598;15.650;2023-02-20T10:04:20;98775.56;;;10.49;57.86
59194;BME280;44967;48.598;15.650;2023-02-20T10:06:49;98786.63;;;10.26;58.37
59194;BME280;44967;48.598;15.650;2023-02-20T10:09:16;98791.69;;;10.36;58.41
59194;BME280;44967;48.598;15.650;2023-02-20T10:12:05;98807.34;;;10.44;59.17
59194;BME280;44967;48.598;15.650;2023-02-20T10:17:39;98800.66;;;10.68;58.04
59194;BME280;44967;48.598;15.650;2023-02-20T10:20:26;98809.75;;;10.56;56.32
59194;BME280;44967;48.598;15.650;2023-02-20T10:22:57;98796.22;;;10.70;57.59
59194;BME280;44967;48.598;15.650;2023-02-20T10:25:30;98790.72;;;10.79;56.72
59194;BME280;44967;48.598;15.650;2023-02-20T10:28:08;98783.75;;;10.75;57.11
59194;BME280;44967;48.598;15.650;2023-02-20T10:30:38;98769.25;;;10.91;58.72
59194;BME280;44967;48.598;15.650;2023-02-20T10:35:56;98767.38;;;10.96;57.25
59194;BME280;44967;48.598;15.650;2023-02-20T10:38:28;98764.66;;;10.99;55.75
59194;BME280;44967;48.598;15.650;2023-02-20T10:41:14;98767.00;;;11.11;56.10
59194;BME280;44967;48.598;15.650;2023-02-20T10:46:50;98737.28;;;11.35;56.34
59194;BME280;44967;48.598;15.650;2023-02-20T10:52:32;98741.16;;;11.55;54.89
59194;BME280;44967;48.598;15.650;2023-02-20T10:55:33;98722.25;;;11.38;54.30
59194;BME280;44967;48.598;15.650;2023-02-20T10:58:12;98712.78;;;11.60;56.05
59194;BME280;44967;48.598;15.650;2023-02-20T11:00:54;98729.94;;;11.79;53.10
59194;BME280;44967;48.598;15.650;2023-02-20T11:03:28;98718.56;;;11.75;52.79
59194;BME280;44967;48.598;15.650;2023-02-20T11:05:56;98716.25;;;11.62;52.79
59194;BME280;44967;48.598;15.650;2023-02-20T11:08:24;98703.44;;;11.79;53.61
59194;BME280;44967;48.598;15.650;2023-02-20T11:10:57;98696.91;;;11.60;52.01
59194;BME280;44967;48.598;15.650;2023-02-20T11:13:24;98700.13;;;11.71;53.46
59194;BME280;44967;48.598;15.650;2023-02-20T11:15:52;98691.13;;;11.78;52.98
59194;BME280;44967;48.598;15.650;2023-02-20T11:18:37;98693.53;;;11.86;51.22
59194;BME280;44967;48.598;15.650;2023-02-20T11:21:03;98695.59;;;12.05;51.07
59194;BME280;44967;48.598;15.650;2023-02-20T11:23:40;98688.28;;;12.13;50.84
59194;BME280;44967;48.598;15.650;2023-02-20T11:26:26;98692.78;;;12.11;51.10
59194;BME280;44967;48.598;15.650;2023-02-20T11:28:57;98688.78;;;12.26;50.49
59194;BME280;44967;48.598;15.650;2023-02-20T11:31:24;98696.41;;;12.37;51.57
59194;BME280;44967;48.598;15.650;2023-02-20T11:33:53;98685.50;;;12.46;50.21
59194;BME280;44967;48.598;15.650;2023-02-20T11:36:24;98682.38;;;12.33;49.32
59194;BME280;44967;48.598;15.650;2023-02-20T11:38:59;98682.59;;;12.55;50.72
59194;BME280;44967;48.598;15.650;2023-02-20T11:41:30;98685.38;;;12.50;49.88
59194;BME280;44967;48.598;15.650;2023-02-20T11:44:23;98669.63;;;12.46;49.40
59194;BME280;44967;48.598;15.650;2023-02-20T11:47:23;98671.06;;;12.56;49.64
59194;BME280;44967;48.598;15.650;2023-02-20T11:49:49;98666.28;;;12.67;49.98
59194;BME280;44967;48.598;15.650;2023-02-20T11:52:35;98660.53;;;12.53;49.75
59194;BME280;44967;48.598;15.650;2023-02-20T11:55:18;98641.94;;;12.28;48.82
59194;BME280;44967;48.598;15.650;2023-02-20T11:57:46;98642.25;;;12.17;49.45
59194;BME280;44967;48.598;15.650;2023-02-20T12:00:18;98636.91;;;12.19;49.30
59194;BME280;44967;48.598;15.650;2023-02-20T12:03:17;98644.63;;;12.26;48.99
59194;BME280;44967;48.598;15.650;2023-02-20T12:05:47;98645.63;;;12.22;51.13
59194;BME280;44967;48.598;15.650;2023-02-20T12:11:25;98632.50;;;12.18;48.98
59194;BME280;44967;48.598;15.650;2023-02-20T12:13:53;98621.34;;;12.08;48.46
59194;BME280;44967;48.598;15.650;2023-02-20T12:35:34;98602.97;;;12.56;46.37
59194;BME280;44967;48.598;15.650;2023-02-20T12:38:36;98606.31;;;12.63;48.13
59194;BME280;44967;48.598;15.650;2023-02-20T12:41:35;98595.22;;;12.76;48.18
59194;BME280;44967;48.598;15.650;2023-02-20T12:47:07;98585.59;;;12.74;47.02
59194;BME280;44967;48.598;15.650;2023-02-20T12:49:57;98575.47;;;12.85;46.18
59194;BME280;44967;48.598;15.650;2023-02-20T12:52:52;98589.59;;;12.86;46.90
59194;BME280;44967;48.598;15.650;2023-02-20T12:58:28;98575.66;;;12.54;46.20
59194;BME280;44967;48.598;15.650;2023-02-20T13:00:59;98580.53;;;12.68;47.09
59194;BME280;44967;48.598;15.650;2023-02-20T13:03:45;98572.91;;;12.57;46.06
59194;BME280;44967;48.598;15.650;2023-02-20T13:09:24;98573.88;;;12.55;48.07
59194;BME280;44967;48.598;15.650;2023-02-20T13:11:54;98565.22;;;12.50;46.99
59194;BME280;44967;48.598;15.650;2023-02-20T13:17:34;98555.94;;;12.63;47.85
59194;BME280;44967;48.598;15.650;2023-02-20T13:22:41;98528.50;;;12.64;46.20
59194;BME280;44967;48.598;15.650;2023-02-20T13:25:39;98526.78;;;12.63;46.26
59194;BME280;44967;48.598;15.650;2023-02-20T13:33:34;98518.72;;;12.66;46.44
59194;BME280;44967;48.598;15.650;2023-02-20T13:36:02;98499.28;;;12.90;45.79
59194;BME280;44967;48.598;15.650;2023-02-20T13:38:28;98517.22;;;13.07;45.91
59194;BME280;44967;48.598;15.650;2023-02-20T13:54:20;98494.56;;;13.45;42.30
59194;BME280;44967;48.598;15.650;2023-02-20T13:56:56;98506.41;;;13.36;44.52
59194;BME280;44967;48.598;15.650;2023-02-20T13:59:26;98502.13;;;13.32;43.98
59194;BME280;44967;48.598;15.650;2023-02-20T14:02:15;98500.34;;;13.33;43.66
59194;BME280;44967;48.598;15.650;2023-02-20T14:05:16;98496.91;;;13.31;45.03
59194;BME280;44967;48.598;15.650;2023-02-20T14:07:44;98500.88;;;13.42;44.23
59194;BME280;44967;48.598;15.650;2023-02-20T14:10:27;98501.50;;;13.49;43.62
59194;BME280;44967;48.598;15.650;2023-02-20T14:15:24;98494.13;;;13.34;43.62
59194;BME280;44967;48.598;15.650;2023-02-20T14:17:53;98493.22;;;13.35;43.15
59194;BME280;44967;48.598;15.650;2023-02-20T14:20:34;98479.44;;;13.23;44.19
59194;BME280;44967;48.598;15.650;2023-02-20T14:25:32;98476.19;;;13.17;43.03
59194;BME280;44967;48.598;15.650;2023-02-20T14:28:08;98486.59;;;12.98;42.61
59194;BME280;44967;48.598;15.650;2023-02-20T14:30:35;98478.06;;;12.90;43.57
59194;BME280;44967;48.598;15.650;2023-02-20T14:33:02;98484.34;;;12.88;42.95
59194;BME280;44967;48.598;15.650;2023-02-20T14:35:50;98481.03;;;12.81;43.86
59194;BME280;44967;48.598;15.650;2023-02-20T14:41:09;98470.22;;;12.87;44.26
59194;BME280;44967;48.598;15.650;2023-02-20T14:43:36;98472.59;;;12.70;44.79
59194;BME280;44967;48.598;15.650;2023-02-20T14:46:05;98465.22;;;12.78;43.80
59194;BME280;44967;48.598;15.650;2023-02-20T14:48:33;98462.69;;;12.75;44.33
59194;BME280;44967;48.598;15.650;2023-02-20T14:51:08;98451.81;;;12.58;45.10
59194;BME280;44967;48.598;15.650;2023-02-20T14:53:36;98457.44;;;12.49;45.82
59194;BME280;44967;48.598;15.650;2023-02-20T14:56:14;98473.03;;;12.58;45.90
59194;BME280;44967;48.598;15.650;2023-02-20T14:58:40;98476.72;;;12.54;45.85
59194;BME280;44967;48.598;15.650;2023-02-20T15:01:28;98463.69;;;12.48;46.18
59194;BME280;44967;48.598;15.650;2023-02-20T15:04:03;98462.75;;;12.49;45.57
59194;BME280;44967;48.598;15.650;2023-02-20T15:06:34;98468.59;;;12.34;46.60
59194;BME280;44967;48.598;15.650;2023-02-20T15:09:02;98458.66;;;12.15;47.31
59194;BME280;44967;48.598;15.650;2023-02-20T15:11:29;98462.91;;;12.19;46.57
59194;BME280;44967;48.598;15.650;2023-02-20T15:13:56;98463.09;;;12.13;47.74
59194;BME280;44967;48.598;15.650;2023-02-20T15:16:29;98463.72;;;12.21;46.62
59194;BME280;44967;48.598;15.650;2023-02-20T15:18:56;98459.59;;;12.13;47.27
59194;BME280;44967;48.598;15.650;2023-02-20T15:21:36;98452.94;;;12.01;48.09